North Logan, Utah
Current Conditions -  °F | °C
As of 4:51 PM on Friday 31 Oct 2014 (Local Time) from KLGU Reporting Station
Clear Clear  
Wind Chill: 69°   Ceiling: Unl
Heat Index: 69°   Visibility: 10mi
Dew Point: 28°   Wind: 10mph
Humidity: 22%   Direction: 240°WSW
Pressure: 29.86"   Gusts: NA
Location:  41.7766°N, 111.794°W
Report Text: KLGU 312251Z AUTO 24009KT 10SM CLR 21/M02 A2986 RMK AO2 SLP090 T02061022 TSNO
Loading
Personal Weather Stations






























Interactive Weather Map
Tropical Storm Tracking
New forecast layout! Learn more

10-Day Weather Forecast

Advertisements
Track Severe Weather on mobile